Time;durP1;ratioP1;P1;durP2;ratioP2;P2;SDS_P1;SDS_P2;PMS_P1;PMS_P2;Temp;Humidity;BMP_temperature;BMP_pressure;BME280_temperature;BME280_humidity;BME280_pressure;Samples;Min_cycle;Max_cycle;Signal;HPM_P1;HPM_P2
2021/10/20 00:00:29;;;;;;;42.75;32.83;;;;;;;11.97;100.00;102456.94;4958943;28;20113;-72
2021/10/20 00:03:15;;;;;;;44.00;32.38;;;;;;;12.05;100.00;102459.63;4949190;28;20038;-72
2021/10/20 00:06:01;;;;;;;48.40;33.47;;;;;;;11.86;100.00;102468.28;4962074;28;20023;-71
2021/10/20 00:08:50;;;;;;;45.92;33.42;;;;;;;11.83;100.00;102463.91;4951943;28;20143;-71
2021/10/20 00:11:36;;;;;;;48.67;35.42;;;;;;;11.61;100.00;102466.41;4965658;28;20086;-71
2021/10/20 00:14:22;;;;;;;43.10;32.35;;;;;;;11.77;100.00;102471.75;4954699;28;20050;-71
2021/10/20 00:17:08;;;;;;;46.80;33.45;;;;;;;11.80;100.00;102460.38;4962777;28;20035;-71
2021/10/20 00:19:58;;;;;;;45.65;32.55;;;;;;;11.73;100.00;102472.59;4951822;28;20027;-71
2021/10/20 00:22:44;;;;;;;45.47;33.65;;;;;;;11.92;100.00;102457.81;4949219;28;20491;-70
2021/10/20 00:25:30;;;;;;;47.58;33.33;;;;;;;11.70;100.00;102454.19;4948869;28;20030;-70
2021/10/20 00:28:16;;;;;;;44.55;32.55;;;;;;;11.44;100.00;102447.88;4959681;28;20101;-71
2021/10/20 00:31:02;;;;;;;43.28;31.38;;;;;;;11.70;100.00;102448.94;4949517;28;20035;-71
2021/10/20 00:33:48;;;;;;;42.58;30.85;;;;;;;11.66;100.00;102441.91;4944672;28;20038;-71
2021/10/20 00:36:33;;;;;;;42.25;31.25;;;;;;;11.72;100.00;102441.97;4953397;28;20134;-71
2021/10/20 00:39:19;;;;;;;41.28;30.90;;;;;;;11.58;100.00;102448.81;4960601;28;20628;-71
2021/10/20 00:42:05;;;;;;;41.03;30.85;;;;;;;11.61;100.00;102448.88;4950671;28;20514;-70
2021/10/20 00:44:54;;;;;;;43.05;29.60;;;;;;;11.75;100.00;102449.84;4948468;28;20081;-71
2021/10/20 00:47:40;;;;;;;40.42;30.02;;;;;;;11.83;100.00;102447.25;4956750;28;20101;-70
2021/10/20 00:50:26;;;;;;;42.35;30.42;;;;;;;11.53;100.00;102431.31;4957493;28;20349;-71
2021/10/20 00:53:12;;;;;;;41.08;29.73;;;;;;;11.59;100.00;102445.34;4949849;28;20167;-71
2021/10/20 00:55:58;;;;;;;41.38;29.55;;;;;;;11.57;100.00;102444.44;4948061;28;20106;-71
2021/10/20 00:58:44;;;;;;;43.28;30.58;;;;;;;11.52;100.00;102446.19;4945638;28;20834;-71
2021/10/20 01:01:30;;;;;;;42.97;31.05;;;;;;;11.71;100.00;102449.81;4953366;28;20353;-71
2021/10/20 01:04:15;;;;;;;42.78;29.45;;;;;;;11.65;100.00;102432.28;4947699;28;20350;-71
2021/10/20 01:07:02;;;;;;;44.63;29.95;;;;;;;11.40;100.00;102435.59;4956186;28;20483;-71
2021/10/20 01:09:48;;;;;;;37.90;28.23;;;;;;;11.49;100.00;102440.91;4942562;28;20062;-71
2021/10/20 01:12:35;;;;;;;40.47;29.35;;;;;;;11.44;100.00;102447.00;4947573;28;20627;-71
2021/10/20 01:15:24;;;;;;;40.38;29.05;;;;;;;11.21;100.00;102438.97;4949793;28;20039;-70
2021/10/20 01:18:12;;;;;;;35.53;27.50;;;;;;;10.77;100.00;102436.88;4956204;28;20031;-71
2021/10/20 01:21:00;;;;;;;38.22;28.45;;;;;;;11.09;100.00;102436.25;4939777;28;20519;-71
2021/10/20 01:23:47;;;;;;;38.58;28.17;;;;;;;10.75;100.00;102428.97;4946465;28;20123;-71
2021/10/20 01:26:32;;;;;;;41.10;29.80;;;;;;;11.23;100.00;102421.50;4949970;28;20062;-70
2021/10/20 01:29:19;;;;;;;35.85;27.15;;;;;;;11.02;100.00;102415.22;4957569;28;20031;-70
2021/10/20 01:32:06;;;;;;;38.67;29.08;;;;;;;11.28;100.00;102409.28;4959006;28;20763;-70
2021/10/20 01:34:51;;;;;;;39.90;29.00;;;;;;;11.30;100.00;102406.66;4951384;28;20061;-70
2021/10/20 01:37:38;;;;;;;40.90;29.13;;;;;;;11.22;100.00;102411.88;4957247;28;20073;-70
2021/10/20 01:40:24;;;;;;;37.38;27.98;;;;;;;11.32;100.00;102403.19;4945110;28;20046;-70
2021/10/20 01:43:10;;;;;;;38.78;28.02;;;;;;;11.40;100.00;102398.88;4954767;28;20067;-70
2021/10/20 01:45:56;;;;;;;42.25;29.85;;;;;;;11.46;100.00;102398.91;4950749;28;20054;-70
2021/10/20 01:48:41;;;;;;;41.30;30.02;;;;;;;11.18;100.00;102401.34;4959272;28;20122;-70
2021/10/20 01:51:27;;;;;;;45.38;30.77;;;;;;;11.24;100.00;102398.75;4947190;28;20086;-70
2021/10/20 01:54:13;;;;;;;39.65;28.35;;;;;;;10.99;100.00;102394.19;4948809;28;20170;-70
2021/10/20 01:56:59;;;;;;;41.00;28.77;;;;;;;11.38;100.00;102403.25;4936488;28;20046;-70
2021/10/20 01:59:45;;;;;;;40.42;29.20;;;;;;;11.36;100.00;102409.31;4949526;28;20124;-71
2021/10/20 02:02:31;;;;;;;45.17;30.60;;;;;;;11.16;100.00;102418.81;4933498;28;20035;-71
2021/10/20 02:05:17;;;;;;;41.40;29.02;;;;;;;11.10;100.00;102416.16;4955165;28;20035;-71
2021/10/20 02:08:03;;;;;;;43.83;29.65;;;;;;;11.19;100.00;102413.59;4956189;28;20039;-71
2021/10/20 02:10:49;;;;;;;43.00;29.00;;;;;;;11.24;100.00;102418.00;4942158;28;20633;-71
2021/10/20 02:13:35;;;;;;;41.00;29.73;;;;;;;11.06;100.00;102406.50;4945144;28;20039;-71
2021/10/20 02:16:21;;;;;;;41.70;28.10;;;;;;;11.26;100.00;102403.16;4965310;28;20036;-71
2021/10/20 02:19:07;;;;;;;43.20;28.27;;;;;;;11.24;100.00;102406.63;4951922;28;20479;-71
2021/10/20 02:21:54;;;;;;;39.97;28.77;;;;;;;11.24;100.00;102410.13;4947162;28;20122;-71
2021/10/20 02:24:40;;;;;;;39.33;28.25;;;;;;;11.47;100.00;102408.53;4953150;28;20046;-72
2021/10/20 02:27:26;;;;;;;37.95;28.42;;;;;;;11.47;100.00;102416.41;4959030;28;20117;-71
2021/10/20 02:30:13;;;;;;;38.75;27.90;;;;;;;11.46;100.00;102414.66;4934213;28;20039;-70
2021/10/20 02:32:59;;;;;;;41.97;28.73;;;;;;;11.26;100.00;102407.53;4948614;28;20065;-71
2021/10/20 02:35:44;;;;;;;39.00;28.05;;;;;;;11.42;100.00;102409.38;4954101;28;20120;-72
2021/10/20 02:38:30;;;;;;;38.22;27.10;;;;;;;11.28;100.00;102418.88;4939750;28;20036;-72
2021/10/20 02:41:16;;;;;;;39.30;29.42;;;;;;;10.71;100.00;102414.09;4948378;28;20743;-70
2021/10/20 02:44:03;;;;;;;40.88;29.45;;;;;;;10.90;100.00;102421.25;4946508;28;20045;-71
2021/10/20 02:46:49;;;;;;;43.45;28.83;;;;;;;10.77;100.00;102411.50;4950673;28;20031;-71
2021/10/20 02:49:34;;;;;;;43.22;29.92;;;;;;;10.91;100.00;102412.50;4954504;28;20030;-71
2021/10/20 02:52:20;;;;;;;42.60;29.85;;;;;;;10.99;100.00;102415.19;4956339;28;20097;-71
2021/10/20 02:55:07;;;;;;;42.58;30.35;;;;;;;11.07;100.00;102418.75;4950232;28;20110;-71
2021/10/20 02:57:53;;;;;;;40.50;29.33;;;;;;;11.14;100.00;102421.44;4954791;28;20109;-73
2021/10/20 03:00:39;;;;;;;41.40;30.30;;;;;;;11.04;100.00;102416.97;4952679;28;20357;-71
2021/10/20 03:03:25;;;;;;;40.38;29.80;;;;;;;11.17;100.00;102424.06;4952214;28;20031;-71
2021/10/20 03:06:10;;;;;;;40.28;29.50;;;;;;;11.32;100.00;102423.28;4949516;28;21015;-71
2021/10/20 03:08:56;;;;;;;45.58;30.73;;;;;;;11.17;100.00;102424.06;4962885;28;20051;-71
2021/10/20 03:11:42;;;;;;;43.75;30.77;;;;;;;11.13;100.00;102421.44;4953591;28;20031;-71
2021/10/20 03:14:28;;;;;;;41.15;29.48;;;;;;;10.97;100.00;102425.66;4956939;28;20034;-71
2021/10/20 03:17:15;;;;;;;42.03;29.83;;;;;;;10.90;100.00;102421.25;4949412;28;20034;-71
2021/10/20 03:20:01;;;;;;;43.30;30.35;;;;;;;10.86;100.00;102424.72;4951916;28;20027;-71
2021/10/20 03:22:46;;;;;;;41.63;29.75;;;;;;;10.40;100.00;102421.66;4950183;28;20031;-71
2021/10/20 03:25:32;;;;;;;42.22;30.27;;;;;;;10.85;100.00;102416.84;4951015;28;20116;-71
2021/10/20 03:28:18;;;;;;;43.28;29.65;;;;;;;10.86;100.00;102411.59;4939895;28;20035;-71
2021/10/20 03:31:04;;;;;;;42.80;30.02;;;;;;;10.65;100.00;102418.41;4940732;28;20420;-71
2021/10/20 03:33:49;;;;;;;43.78;30.75;;;;;;;10.94;100.00;102407.31;4948929;28;20804;-71
2021/10/20 03:36:35;;;;;;;45.83;32.47;;;;;;;10.69;100.00;102413.19;4955728;28;20035;-71
2021/10/20 03:39:21;;;;;;;43.13;31.63;;;;;;;10.88;100.00;102419.50;4949372;28;20109;-71
2021/10/20 03:42:07;;;;;;;45.13;32.10;;;;;;;10.88;100.00;102409.00;4941308;28;20031;-71
2021/10/20 03:44:52;;;;;;;43.53;31.15;;;;;;;11.03;100.00;102407.34;4943557;28;20104;-71
2021/10/20 03:47:38;;;;;;;45.70;32.08;;;;;;;10.97;100.00;102406.44;4950080;28;20102;-70
2021/10/20 03:50:25;;;;;;;44.67;32.03;;;;;;;10.88;100.00;102407.22;4944220;28;20031;-71
2021/10/20 03:53:10;;;;;;;46.03;31.67;;;;;;;10.70;100.00;102411.44;4949044;28;20031;-71
2021/10/20 03:55:56;;;;;;;43.03;31.27;;;;;;;10.88;100.00;102409.00;4946223;28;20106;-70
2021/10/20 03:58:42;;;;;;;43.20;31.40;;;;;;;10.61;100.00;102403.50;4951242;28;20565;-70
2021/10/20 04:01:28;;;;;;;47.88;33.53;;;;;;;10.79;100.00;102412.41;4946664;28;20028;-70
2021/10/20 04:04:13;;;;;;;44.28;31.42;;;;;;;10.84;100.00;102399.34;4944694;28;20039;-71
2021/10/20 04:06:59;;;;;;;45.72;32.92;;;;;;;11.05;100.00;102403.00;4951468;28;20031;-70
2021/10/20 04:09:45;;;;;;;42.88;31.25;;;;;;;10.85;100.00;102401.94;4960781;28;20058;-71
2021/10/20 04:12:30;;;;;;;45.17;32.15;;;;;;;10.82;100.00;102403.69;4953794;28;20110;-71
2021/10/20 04:15:19;;;;;;;48.38;32.30;;;;;;;10.91;100.00;102404.66;4948493;28;20034;-70
2021/10/20 04:18:05;;;;;;;47.95;32.13;;;;;;;11.03;100.00;102404.75;4950442;28;20098;-70
2021/10/20 04:20:51;;;;;;;45.90;31.80;;;;;;;10.90;100.00;102416.00;4949225;28;20121;-71
2021/10/20 04:23:37;;;;;;;49.78;32.45;;;;;;;10.60;100.00;102407.00;4948030;28;20130;-71
2021/10/20 04:26:23;;;;;;;46.83;32.17;;;;;;;10.79;100.00;102406.28;4952863;28;20053;-70
2021/10/20 04:29:08;;;;;;;52.42;31.83;;;;;;;10.70;100.00;102408.81;4958977;28;20033;-71
2021/10/20 04:31:54;;;;;;;48.10;32.80;;;;;;;10.83;100.00;102401.06;4938853;28;20035;-71
2021/10/20 04:34:40;;;;;;;46.90;32.47;;;;;;;11.06;100.00;102406.50;4951767;28;20051;-71
2021/10/20 04:37:27;;;;;;;45.08;32.72;;;;;;;10.99;100.00;102399.44;4958783;28;20019;-71
2021/10/20 04:40:12;;;;;;;52.05;34.45;;;;;;;10.85;100.00;102406.34;4958381;28;20178;-71
2021/10/20 04:42:58;;;;;;;52.33;34.40;;;;;;;10.90;100.00;102405.53;4953670;28;20042;-71
2021/10/20 04:45:44;;;;;;;49.60;32.90;;;;;;;10.91;100.00;102415.13;4941569;28;20488;-71
2021/10/20 04:48:30;;;;;;;52.47;35.85;;;;;;;10.57;100.00;102404.34;4950602;28;20027;-72
2021/10/20 04:51:16;;;;;;;50.55;34.25;;;;;;;10.70;100.00;102409.72;4952642;28;20042;-71
2021/10/20 04:54:02;;;;;;;61.63;37.33;;;;;;;10.70;100.00;102412.34;4951824;28;20035;-70
2021/10/20 04:56:48;;;;;;;54.63;36.78;;;;;;;10.82;100.00;102422.94;4960049;28;20042;-70
2021/10/20 04:59:34;;;;;;;56.17;33.75;;;;;;;10.83;100.00;102416.81;4958385;28;20058;-71
2021/10/20 05:02:20;;;;;;;51.70;32.88;;;;;;;10.89;100.00;102419.47;4953291;28;20035;-70
2021/10/20 05:05:07;;;;;;;56.13;34.53;;;;;;;10.89;100.00;102408.97;4955571;28;20456;-70
2021/10/20 05:07:54;;;;;;;56.15;34.55;;;;;;;10.79;100.00;102415.03;4952296;28;20495;-71
2021/10/20 05:10:41;;;;;;;58.42;33.50;;;;;;;10.79;100.00;102409.78;4955847;28;20431;-71
2021/10/20 05:13:27;;;;;;;51.15;34.15;;;;;;;10.84;100.00;102415.94;4935153;28;20170;-71
2021/10/20 05:16:13;;;;;;;54.05;33.67;;;;;;;10.98;100.00;102408.19;4937556;28;20027;-71
2021/10/20 05:18:59;;;;;;;48.53;31.88;;;;;;;10.78;100.00;102409.78;4941146;28;20475;-72
2021/10/20 05:21:44;;;;;;;49.20;33.13;;;;;;;11.03;100.00;102412.59;4956460;28;20090;-72
2021/10/20 05:24:30;;;;;;;50.13;32.40;;;;;;;10.84;100.00;102402.81;4950980;28;20042;-72
2021/10/20 05:27:16;;;;;;;48.30;30.65;;;;;;;11.11;100.00;102423.16;4951421;28;20046;-71
2021/10/20 05:30:03;;;;;;;56.42;35.25;;;;;;;11.27;100.00;102425.00;4941116;28;20086;-71
2021/10/20 05:32:48;;;;;;;47.45;30.58;;;;;;;11.11;100.00;102421.41;4943095;28;20085;-71
2021/10/20 05:35:34;;;;;;;46.38;31.17;;;;;;;11.20;100.00;102426.72;4956031;28;20090;-71
2021/10/20 05:38:20;;;;;;;49.47;32.42;;;;;;;11.06;100.00;102428.38;4956405;28;20110;-70
2021/10/20 05:41:07;;;;;;;47.03;31.30;;;;;;;11.02;100.00;102430.94;4955920;28;20023;-71
2021/10/20 05:43:52;;;;;;;56.58;34.72;;;;;;;10.98;100.00;102431.78;4956740;28;20031;-71
2021/10/20 05:46:38;;;;;;;49.50;32.00;;;;;;;10.75;100.00;102433.34;4957281;28;20106;-71
2021/10/20 05:49:24;;;;;;;46.28;31.25;;;;;;;10.87;100.00;102428.19;4957182;28;20375;-71
2021/10/20 05:52:10;;;;;;;46.30;31.40;;;;;;;11.28;100.00;102435.53;4957693;28;20031;-72
2021/10/20 05:54:58;;;;;;;47.75;32.30;;;;;;;11.08;100.00;102428.34;4958209;28;20023;-71
2021/10/20 05:57:43;;;;;;;49.70;31.65;;;;;;;10.46;100.00;102435.69;4956892;28;20063;-71
2021/10/20 06:00:29;;;;;;;44.83;30.25;;;;;;;10.56;100.00;102440.16;4957388;28;20030;-71
2021/10/20 06:03:15;;;;;;;46.42;29.48;;;;;;;10.51;100.00;102441.84;4930717;28;20097;-71
2021/10/20 06:06:01;;;;;;;44.13;31.75;;;;;;;11.30;100.00;102453.91;4952051;28;20031;-73
2021/10/20 06:08:47;;;;;;;43.97;29.60;;;;;;;11.19;100.00;102456.44;4952275;28;20078;-72
2021/10/20 06:11:33;;;;;;;42.10;29.25;;;;;;;11.39;100.00;102452.22;4951174;28;20360;-71
2021/10/20 06:14:19;;;;;;;44.83;31.30;;;;;;;11.61;100.00;102466.41;4950726;28;20096;-72
2021/10/20 06:17:05;;;;;;;47.13;29.98;;;;;;;11.72;100.00;102465.59;4957791;28;20023;-72
2021/10/20 06:19:50;;;;;;;44.72;30.25;;;;;;;11.77;100.00;102466.47;4940574;28;20093;-72
2021/10/20 06:22:40;;;;;;;46.90;31.90;;;;;;;11.55;100.00;102464.59;4957303;28;20031;-72
2021/10/20 06:25:26;;;;;;;44.25;30.73;;;;;;;11.77;100.00;102465.63;4939905;28;20027;-71
2021/10/20 06:28:12;;;;;;;50.05;30.83;;;;;;;11.98;100.00;102460.47;4939298;28;20023;-71
2021/10/20 06:30:58;;;;;;;49.72;31.10;;;;;;;11.38;100.00;102467.97;4953542;28;20098;-72
2021/10/20 06:33:44;;;;;;;44.83;30.90;;;;;;;11.65;100.00;102462.94;4950927;28;20353;-73
2021/10/20 06:36:33;;;;;;;49.85;33.15;;;;;;;11.65;100.00;102468.19;4946572;28;20049;-72
2021/10/20 06:39:23;;;;;;;50.00;31.67;;;;;;;11.51;100.00;102472.41;4954840;28;20086;-72
2021/10/20 06:42:09;;;;;;;50.90;32.38;;;;;;;11.91;100.00;102467.44;4952683;28;20104;-72
2021/10/20 06:44:56;;;;;;;49.25;32.38;;;;;;;11.89;100.00;102469.16;4955988;28;20038;-72
2021/10/20 06:47:42;;;;;;;44.72;31.67;;;;;;;12.39;100.00;102475.53;4963214;28;20408;-71
2021/10/20 06:50:28;;;;;;;49.28;32.20;;;;;;;12.82;100.00;102474.72;4954875;28;20373;-73
2021/10/20 06:53:14;;;;;;;46.95;30.20;;;;;;;12.93;100.00;102477.38;4956454;28;20375;-72
2021/10/20 06:56:02;;;;;;;53.38;31.27;;;;;;;12.39;100.00;102475.53;4954611;28;20026;-72
2021/10/20 06:58:48;;;;;;;47.75;29.63;;;;;;;11.86;100.00;102484.91;4951783;28;20549;-72
2021/10/20 07:01:33;;;;;;;45.53;29.98;;;;;;;12.48;100.00;102472.03;4958080;28;20027;-72
2021/10/20 07:04:19;;;;;;;47.85;29.27;;;;;;;12.53;100.00;102471.16;4951820;28;20396;-73
2021/10/20 07:07:11;;;;;;;42.65;28.83;;;;;;;11.90;100.00;102470.06;4957038;28;20027;-71
2021/10/20 07:09:57;;;;;;;43.35;28.45;;;;;;;11.74;100.00;102476.09;4941144;28;20527;-73
2021/10/20 07:12:43;;;;;;;44.08;28.08;;;;;;;12.29;100.00;102475.47;4950858;28;20031;-72
2021/10/20 07:15:29;;;;;;;37.47;26.58;;;;;;;12.62;100.00;102471.19;4945275;28;20039;-73
2021/10/20 07:18:15;;;;;;;38.38;27.02;;;;;;;13.04;100.00;102487.06;4952017;28;20038;-73
2021/10/20 07:21:02;;;;;;;38.58;27.70;;;;;;;13.60;100.00;102477.38;4952659;28;20085;-73
2021/10/20 07:23:47;;;;;;;41.40;26.92;;;;;;;12.99;100.00;102477.41;4948583;28;20027;-72
2021/10/20 07:26:33;;;;;;;42.38;27.85;;;;;;;12.99;100.00;102473.00;4963754;28;20027;-72
2021/10/20 07:29:19;;;;;;;39.78;26.65;;;;;;;12.80;100.00;102476.50;4952759;28;20042;-73
2021/10/20 07:32:05;;;;;;;37.90;27.15;;;;;;;12.79;100.00;102477.38;4951440;28;20027;-72
2021/10/20 07:34:51;;;;;;;36.97;26.45;;;;;;;13.12;100.00;102479.16;4951077;28;20203;-73
2021/10/20 07:37:37;;;;;;;34.55;25.98;;;;;;;13.53;100.00;102480.00;4948555;28;20038;-72
2021/10/20 07:40:23;;;;;;;42.33;28.63;;;;;;;13.47;100.00;102474.78;4950077;28;20039;-72
2021/10/20 07:43:09;;;;;;;36.28;26.20;;;;;;;13.89;100.00;102477.28;4955854;28;20094;-74
2021/10/20 07:45:55;;;;;;;35.70;24.88;;;;;;;13.83;100.00;102469.44;4963958;28;20124;-73
2021/10/20 07:48:41;;;;;;;36.75;24.58;;;;;;;13.58;100.00;102473.88;4954814;28;20044;-73
2021/10/20 07:51:30;;;;;;;32.22;24.50;;;;;;;13.82;100.00;102468.53;4949984;28;20105;-72
2021/10/20 07:54:17;;;;;;;35.80;25.00;;;;;;;14.10;100.00;102471.94;4947658;28;20403;-73
2021/10/20 07:57:03;;;;;;;30.88;23.70;;;;;;;14.35;100.00;102473.66;4953347;28;20110;-73
2021/10/20 07:59:49;;;;;;;30.30;23.08;;;;;;;14.49;100.00;102477.06;4967998;28;21178;-73
2021/10/20 08:02:35;;;;;;;38.40;27.55;;;;;;;14.72;100.00;102476.03;4968474;28;20047;-73
2021/10/20 08:05:21;;;;;;;34.05;23.25;;;;;;;15.14;100.00;102479.28;4947214;28;20034;-73
2021/10/20 08:08:10;;;;;;;30.70;23.35;;;;;;;14.94;100.00;102481.19;4954130;28;20058;-72
2021/10/20 08:10:56;;;;;;;32.85;22.88;;;;;;;14.88;100.00;102475.03;4956101;28;20846;-73
2021/10/20 08:13:42;;;;;;;29.88;23.35;;;;;;;15.22;100.00;102470.38;4970748;28;20031;-74
2021/10/20 08:16:28;;;;;;;28.77;22.70;;;;;;;15.74;100.00;102461.09;4956851;28;20495;-73
2021/10/20 08:19:14;;;;;;;26.67;21.90;;;;;;;15.72;100.00;102469.94;4969683;28;20034;-73
2021/10/20 08:22:00;;;;;;;29.50;21.20;;;;;;;15.42;100.00;102476.41;4945543;28;20078;-73
2021/10/20 08:24:46;;;;;;;28.67;21.88;;;;;;;15.68;100.00;102477.03;4967831;28;20463;-72
2021/10/20 08:27:32;;;;;;;31.08;23.00;;;;;;;15.79;100.00;102471.63;4942833;28;20035;-73
2021/10/20 08:30:18;;;;;;;28.00;22.33;;;;;;;15.53;100.00;102473.66;4967675;28;20113;-73
2021/10/20 08:33:05;;;;;;;27.92;21.90;;;;;;;15.97;100.00;102466.13;4969612;28;20033;-71
2021/10/20 08:35:51;;;;;;;28.15;22.20;;;;;;;16.31;100.00;102464.81;4968283;28;20070;-74
2021/10/20 08:38:36;;;;;;;28.00;22.48;;;;;;;16.06;100.00;102461.59;4963477;28;20037;-71
2021/10/20 08:41:24;;;;;;;30.73;22.88;;;;;;;16.11;100.00;102461.56;4970241;28;20035;-72
2021/10/20 08:44:11;;;;;;;30.02;22.67;;;;;;;16.30;100.00;102457.75;4952636;28;20035;-72
2021/10/20 08:46:57;;;;;;;29.83;23.15;;;;;;;16.36;100.00;102465.63;4971033;28;20035;-72
2021/10/20 08:49:44;;;;;;;27.45;22.02;;;;;;;16.43;100.00;102462.03;4956986;28;20027;-72
2021/10/20 08:52:30;;;;;;;27.17;21.67;;;;;;;16.66;100.00;102462.56;4958351;28;20058;-72
2021/10/20 08:55:17;;;;;;;30.40;23.15;;;;;;;16.43;100.00;102462.91;4967058;28;20110;-72
2021/10/20 08:58:03;;;;;;;30.20;23.00;;;;;;;15.75;100.00;102460.19;4949558;28;20049;-71
2021/10/20 09:00:49;;;;;;;29.38;22.58;;;;;;;16.12;100.00;102458.00;4938204;28;20031;-71
2021/10/20 09:03:38;;;;;;;27.90;22.38;;;;;;;16.45;100.00;102455.81;4952265;28;20026;-73
2021/10/20 09:06:29;;;;;;;36.00;23.63;;;;;;;16.96;100.00;102456.81;4970146;28;20101;-71
2021/10/20 09:09:18;;;;;;;31.60;23.38;;;;;;;16.87;100.00;102459.59;4970332;28;20047;-69
2021/10/20 09:12:04;;;;;;;27.70;23.27;;;;;;;17.36;100.00;102456.09;4952651;28;20035;-70
2021/10/20 09:14:50;;;;;;;30.48;23.88;;;;;;;16.54;100.00;102454.81;4944198;28;20368;-69
2021/10/20 09:17:46;;;;;;;31.90;23.52;;;;;;;16.98;100.00;102455.00;4970111;28;20030;-69
2021/10/20 09:20:44;;;;;;;31.02;24.42;;;;;;;16.38;100.00;102446.19;4952539;28;20046;-69
2021/10/20 09:23:33;;;;;;;31.63;25.23;;;;;;;16.96;100.00;102449.72;4952443;28;20070;-69
2021/10/20 09:26:20;;;;;;;33.15;26.02;;;;;;;17.14;100.00;102444.13;4937710;28;20376;-68
2021/10/20 09:29:27;;;;;;;39.58;28.67;;;;;;;16.48;100.00;102439.88;4937951;28;20035;-69
2021/10/20 09:32:12;;;;;;;32.50;24.90;;;;;;;16.20;100.00;102443.75;4960694;28;20077;-69
2021/10/20 09:34:58;;;;;;;30.13;23.98;;;;;;;16.64;100.00;102445.84;4959404;28;20039;-69
2021/10/20 09:37:44;;;;;;;32.30;25.08;;;;;;;16.64;100.00;102440.56;4951475;28;20348;-70
2021/10/20 09:40:33;;;;;;;29.67;23.38;;;;;;;16.80;100.00;102429.69;4950959;28;20086;-69
2021/10/20 09:43:27;;;;;;;30.80;23.13;;;;;;;17.09;100.00;102426.56;4951136;28;20043;-70
2021/10/20 09:46:13;;;;;;;30.10;22.30;;;;;;;16.38;100.00;102426.78;4950539;28;20033;-69
2021/10/20 09:49:02;;;;;;;30.08;21.77;;;;;;;16.64;100.00;102422.88;4951744;28;20094;-69
2021/10/20 09:55:01;;;;;;;30.38;22.67;;;;;;;17.51;100.00;102412.56;4949786;28;20035;-69
2021/10/20 09:57:47;;;;;;;126.57;30.38;;;;;;;17.42;100.00;102412.75;4949470;28;20035;-71
2021/10/20 10:00:33;;;;;;;30.42;20.55;;;;;;;17.76;100.00;102406.75;4966444;28;20486;-70
2021/10/20 10:03:19;;;;;;;26.05;20.75;;;;;;;17.40;100.00;102403.94;4955180;28;20030;-74
2021/10/20 10:06:05;;;;;;;26.65;20.65;;;;;;;18.23;100.00;102401.34;4953981;28;20039;-70
2021/10/20 10:08:51;;;;;;;26.80;20.17;;;;;;;18.80;100.00;102407.09;4955654;28;20051;-70
2021/10/20 10:11:40;;;;;;;30.75;22.98;;;;;;;18.46;100.00;102403.50;4953596;28;20023;-69
2021/10/20 10:14:30;;;;;;;23.65;19.40;;;;;;;18.80;100.00;102396.47;4949211;28;21667;-70
2021/10/20 10:17:19;;;;;;;25.10;19.98;;;;;;;18.46;100.00;102398.19;4967400;28;20034;-70
2021/10/20 10:20:10;;;;;;;21.75;18.52;;;;;;;18.76;100.00;102395.69;4969583;28;20031;-69
2021/10/20 10:22:59;;;;;;;25.27;19.48;;;;;;;18.36;100.00;102386.91;4965111;28;20050;-70
2021/10/20 10:25:45;;;;;;;27.60;18.98;;;;;;;18.40;100.00;102385.94;4962683;28;20034;-69
2021/10/20 10:28:34;;;;;;;28.30;19.60;;;;;;;18.67;100.00;102385.28;4968608;28;20038;-69
2021/10/20 10:31:35;;;;;;;23.20;18.85;;;;;;;18.83;100.00;102383.13;4966369;28;20051;-69
2021/10/20 10:34:34;;;;;;;25.85;19.58;;;;;;;18.76;100.00;102373.53;4953403;28;20113;-69
2021/10/20 10:37:28;;;;;;;22.98;19.13;;;;;;;18.32;100.00;102374.59;4968509;28;20054;-69
2021/10/20 10:40:16;;;;;;;24.45;18.45;;;;;;;17.82;100.00;102369.53;4945587;28;20388;-71
2021/10/20 10:43:07;;;;;;;24.20;18.67;;;;;;;18.22;100.00;102366.88;4946900;28;20779;-70
2021/10/20 10:45:54;;;;;;;24.48;18.38;;;;;;;18.29;100.00;102365.84;4949155;28;20047;-70
2021/10/20 10:48:44;;;;;;;27.00;18.95;;;;;;;18.84;100.00;102359.19;4950552;28;20107;-69
2021/10/20 10:51:30;;;;;;;23.17;18.15;;;;;;;19.01;100.00;102358.75;4950633;28;20110;-70
2021/10/20 10:54:31;;;;;;;23.35;18.15;;;;;;;18.71;100.00;102357.75;4947278;28;20189;-70
2021/10/20 10:57:17;;;;;;;23.20;18.17;;;;;;;19.13;100.00;102355.78;4962585;28;20027;-69
2021/10/20 11:00:09;;;;;;;20.85;17.90;;;;;;;19.44;100.00;102342.56;4969517;28;20073;-71
2021/10/20 11:03:15;;;;;;;23.92;18.60;;;;;;;19.54;100.00;102339.59;4958897;28;20031;-70
2021/10/20 11:06:01;;;;;;;20.98;17.73;;;;;;;19.80;100.00;102336.16;4965419;28;20046;-71
2021/10/20 11:08:48;;;;;;;22.60;18.45;;;;;;;19.85;100.00;102335.09;4951896;28;20052;-70
2021/10/20 11:11:34;;;;;;;22.80;17.20;;;;;;;19.96;100.00;102332.09;4950592;28;20479;-70
2021/10/20 11:14:22;;;;;;;22.67;17.67;;;;;;;19.95;100.00;102325.94;4937911;28;20023;-71
2021/10/20 11:17:10;;;;;;;25.42;19.95;;;;;;;19.28;100.00;102314.66;4954698;28;20035;-71
2021/10/20 11:19:56;;;;;;;24.02;19.02;;;;;;;19.75;100.00;102311.47;4963141;28;20039;-70
2021/10/20 11:22:56;;;;;;;24.50;17.83;;;;;;;19.51;100.00;102313.06;4968426;28;20359;-71
2021/10/20 11:25:44;;;;;;;20.00;17.10;;;;;;;18.63;100.00;102301.31;4966087;28;20059;-72
2021/10/20 11:28:32;;;;;;;22.80;16.98;;;;;;;19.49;100.00;102298.94;4966209;28;20125;-72
2021/10/20 11:31:18;;;;;;;23.73;18.17;;;;;;;20.08;100.00;102299.78;4951869;28;20109;-72
2021/10/20 11:34:21;;;;;;;23.42;17.55;;;;;;;20.54;100.00;102289.44;4952037;28;20139;-73
2021/10/20 11:37:09;;;;;;;22.98;17.52;;;;;;;20.91;98.49;102287.25;4952806;28;20098;-72
2021/10/20 11:39:58;;;;;;;22.35;18.33;;;;;;;20.45;100.00;102287.09;4950582;28;20169;-72
2021/10/20 11:42:44;;;;;;;18.33;16.00;;;;;;;20.32;100.00;102278.63;4951535;28;20074;-72
2021/10/20 11:45:32;;;;;;;21.92;17.90;;;;;;;20.20;97.43;102284.34;4951843;28;20779;-74
2021/10/20 11:48:21;;;;;;;18.17;15.55;;;;;;;20.84;94.20;102264.38;4939862;28;20039;-73
2021/10/20 11:51:09;;;;;;;25.88;16.88;;;;;;;20.75;94.54;102267.38;4940041;28;20546;-72
2021/10/20 11:53:54;;;;;;;19.20;15.98;;;;;;;20.40;91.50;102265.94;4951127;28;20051;-72
2021/10/20 11:56:40;;;;;;;33.75;28.73;;;;;;;21.10;88.14;102262.56;4954157;28;20467;-72
2021/10/20 11:59:28;;;;;;;17.15;14.98;;;;;;;21.04;85.01;102259.25;4942632;28;20029;-71
2021/10/20 12:02:14;;;;;;;20.70;14.27;;;;;;;20.90;83.71;102251.72;4931934;28;20045;-72
2021/10/20 12:05:00;;;;;;;19.77;15.40;;;;;;;20.22;89.71;102258.56;4926989;28;20035;-72
2021/10/20 12:07:48;;;;;;;19.63;15.50;;;;;;;20.42;91.03;102248.13;4928304;28;20049;-74
2021/10/20 12:10:34;;;;;;;18.70;15.40;;;;;;;19.80;93.12;102246.56;4932030;28;20133;-72
2021/10/20 12:13:19;;;;;;;17.70;14.93;;;;;;;20.00;92.54;102232.63;4931462;28;20034;-72
2021/10/20 12:16:08;;;;;;;20.10;15.13;;;;;;;20.33;91.64;102231.59;4929822;28;21518;-73
2021/10/20 12:18:55;;;;;;;14.23;12.73;;;;;;;20.09;90.70;102230.59;4933743;28;20035;-73
2021/10/20 12:21:42;;;;;;;17.38;13.55;;;;;;;20.64;88.07;102230.47;4919097;28;20038;-72
2021/10/20 12:24:39;;;;;;;16.60;11.95;;;;;;;19.67;83.77;102234.59;4937790;28;20437;-72
2021/10/20 12:27:25;;;;;;;16.27;12.30;;;;;;;19.91;83.81;102235.59;4931559;28;20126;-73
2021/10/20 12:30:13;;;;;;;18.92;12.05;;;;;;;19.81;87.44;102226.19;4932887;28;20094;-72
2021/10/20 12:33:06;;;;;;;13.77;11.88;;;;;;;19.84;85.22;102229.59;4928563;28;20094;-72